createdAt,value
2023-03-06T00:03:17.227Z,19.98
2023-03-06T00:08:44.798Z,18.17
2023-03-06T00:14:12.635Z,16.95
2023-03-06T00:19:40.796Z,24.65
2023-03-06T00:25:13.306Z,19.67
2023-03-06T00:30:40.969Z,20.83
2023-03-06T00:36:08.711Z,15.93
2023-03-06T00:41:35.835Z,19.30
2023-03-06T00:47:04.095Z,16.95
2023-03-06T00:52:32.518Z,18.33
2023-03-06T00:57:59.956Z,20.90
2023-03-06T01:03:28.949Z,16.70
2023-03-06T01:08:57.533Z,19.65
2023-03-06T01:14:26.381Z,20.85
2023-03-06T01:19:53.806Z,20.55
2023-03-06T01:25:20.785Z,12.45
2023-03-06T01:30:50.757Z,19.00
2023-03-06T01:36:19.170Z,21.63
2023-03-06T01:41:47.183Z,16.95
2023-03-06T01:47:14.631Z,15.73
2023-03-06T01:52:56.815Z,15.77
2023-03-06T01:58:24.246Z,21.13
2023-03-06T02:03:51.971Z,23.48
2023-03-06T02:09:19.307Z,25.05
2023-03-06T02:14:48.346Z,19.70
2023-03-06T02:20:26.894Z,22.67
2023-03-06T02:25:54.681Z,23.17
2023-03-06T02:31:25.442Z,22.88
2023-03-06T02:36:57.613Z,22.45
2023-03-06T02:42:26.765Z,24.17
2023-03-06T02:47:55.485Z,28.75
2023-03-06T02:53:23.459Z,30.27
2023-03-06T02:58:52.313Z,26.60
2023-03-06T03:04:21.059Z,28.90
2023-03-06T03:09:49.209Z,25.25
2023-03-06T03:15:17.168Z,29.13
2023-03-06T03:20:44.801Z,24.85
2023-03-06T03:26:14.971Z,23.77
2023-03-06T03:31:46.801Z,23.15
2023-03-06T03:37:14.417Z,24.05
2023-03-06T03:42:43.145Z,26.15
2023-03-06T03:48:11.104Z,26.70
2023-03-06T03:53:40.161Z,26.00
2023-03-06T03:59:09.309Z,23.23
2023-03-06T04:04:44.032Z,29.52
2023-03-06T04:10:13.341Z,34.42
2023-03-06T04:15:41.290Z,45.70
2023-03-06T04:21:09.391Z,47.75
2023-03-06T04:26:37.225Z,39.17
2023-03-06T04:32:05.856Z,38.92
2023-03-06T04:37:33.334Z,37.05
2023-03-06T04:43:01.778Z,33.67
2023-03-06T04:48:29.259Z,40.30
2023-03-06T04:53:56.654Z,46.47
2023-03-06T04:59:24.394Z,42.58
2023-03-06T05:04:53.748Z,36.53
2023-03-06T05:10:21.680Z,31.70
2023-03-06T05:15:49.665Z,29.13
2023-03-06T05:21:18.118Z,34.00
2023-03-06T05:26:45.375Z,32.03
2023-03-06T05:32:12.577Z,32.40
2023-03-06T05:37:40.214Z,27.40
2023-03-06T05:43:08.467Z,29.88
2023-03-06T05:48:40.597Z,31.13
2023-03-06T05:54:07.310Z,27.90
2023-03-06T05:59:34.616Z,30.83
2023-03-06T06:05:04.454Z,22.52
2023-03-06T06:10:32.631Z,24.95
2023-03-06T06:15:59.514Z,27.63
2023-03-06T06:21:26.696Z,23.10
2023-03-06T06:26:57.660Z,22.17
2023-03-06T06:32:24.718Z,25.65
2023-03-06T06:37:53.053Z,23.63
2023-03-06T06:43:20.656Z,24.55
2023-03-06T06:48:55.139Z,24.33
2023-03-06T06:54:22.646Z,22.08
2023-03-06T06:59:52.433Z,30.17
2023-03-06T07:05:21.786Z,28.13
2023-03-06T07:10:51.297Z,27.02
2023-03-06T07:16:18.835Z,25.38
2023-03-06T07:21:46.706Z,23.63
2023-03-06T07:27:13.805Z,23.15
2023-03-06T07:32:43.395Z,24.35
2023-03-06T07:38:11.657Z,28.42
2023-03-06T07:43:43.638Z,28.17
2023-03-06T07:49:13.000Z,22.80
2023-03-06T07:54:41.061Z,22.30
2023-03-06T08:00:15.128Z,24.13
2023-03-06T08:05:44.568Z,27.95
2023-03-06T08:11:13.532Z,25.48
2023-03-06T08:16:41.121Z,23.75
2023-03-06T08:22:08.788Z,23.58
2023-03-06T08:27:36.752Z,22.75
2023-03-06T08:33:03.832Z,31.75
2023-03-06T08:38:32.135Z,23.80
2023-03-06T08:44:00.657Z,24.65
2023-03-06T08:49:28.180Z,20.65
2023-03-06T08:54:55.899Z,19.60
2023-03-06T09:00:23.188Z,24.17
2023-03-06T09:05:52.689Z,22.90
2023-03-06T09:11:21.429Z,26.58
2023-03-06T09:16:49.310Z,22.88
2023-03-06T09:22:17.116Z,20.17
2023-03-06T09:27:43.812Z,19.15
2023-03-06T09:33:11.369Z,20.85
2023-03-06T09:38:39.041Z,17.48
2023-03-06T09:44:26.245Z,14.95
2023-03-06T09:50:04.978Z,16.33
2023-03-06T09:55:35.945Z,15.90
2023-03-06T10:01:35.133Z,17.52
2023-03-06T10:07:13.549Z,14.60
2023-03-06T10:19:21.308Z,20.67
2023-03-06T10:24:57.924Z,17.88
2023-03-06T10:30:39.933Z,18.17
2023-03-06T10:36:10.878Z,16.52
2023-03-06T10:41:38.988Z,18.38
2023-03-06T10:47:31.299Z,20.60
2023-03-06T10:53:20.260Z,14.80
2023-03-06T10:58:47.451Z,18.33
2023-03-06T11:04:28.982Z,17.08
2023-03-06T11:09:59.618Z,16.08
2023-03-06T11:15:29.778Z,14.65
2023-03-06T11:20:58.052Z,14.68
2023-03-06T11:26:34.168Z,17.75
2023-03-06T11:32:28.135Z,11.88
2023-03-06T11:38:01.179Z,15.75
2023-03-06T11:43:49.720Z,15.57
2023-03-06T11:49:24.779Z,15.10
2023-03-06T11:54:56.544Z,13.98
2023-03-06T12:01:13.416Z,16.80
2023-03-06T12:06:46.447Z,14.07
2023-03-06T12:12:28.337Z,13.02
2023-03-06T12:18:10.596Z,14.77
2023-03-06T12:23:55.753Z,18.13
2023-03-06T12:29:42.203Z,16.05
2023-03-06T12:35:09.455Z,17.75
2023-03-06T12:40:45.411Z,16.20
2023-03-06T12:46:22.590Z,15.95
2023-03-06T12:51:49.869Z,16.92
2023-03-06T12:57:17.630Z,20.52
2023-03-06T13:02:55.689Z,19.27
2023-03-06T13:08:33.495Z,17.10
2023-03-06T13:14:00.757Z,17.33
2023-03-06T13:19:28.052Z,21.08
2023-03-06T13:25:17.471Z,18.23
2023-03-06T13:30:46.346Z,14.95
2023-03-06T13:36:34.258Z,16.88
2023-03-06T13:42:01.915Z,18.00
2023-03-06T13:47:46.092Z,15.32
2023-03-06T13:53:41.019Z,11.77
2023-03-06T13:59:39.415Z,20.27
2023-03-06T14:05:14.964Z,21.63
2023-03-06T14:10:45.182Z,24.45
2023-03-06T14:16:32.606Z,24.10
2023-03-06T14:22:04.696Z,21.30
2023-03-06T14:27:39.907Z,24.13
2023-03-06T14:33:11.565Z,21.05
2023-03-06T14:38:48.328Z,26.95
2023-03-06T14:44:20.773Z,25.10
2023-03-06T14:49:48.943Z,24.17
2023-03-06T14:55:20.093Z,23.77
2023-03-06T15:00:52.329Z,27.85
2023-03-06T15:06:42.190Z,25.90
2023-03-06T15:12:20.082Z,27.23
2023-03-06T15:17:49.587Z,21.77
2023-03-06T15:23:25.796Z,24.02
2023-03-06T15:29:23.669Z,24.00
2023-03-06T15:35:26.086Z,28.35
2023-03-06T15:41:01.820Z,28.25
2023-03-06T15:46:29.912Z,25.02
2023-03-06T15:51:57.627Z,29.27
2023-03-06T15:57:29.353Z,32.45
2023-03-06T16:02:59.239Z,30.70
2023-03-06T16:08:32.020Z,28.65
2023-03-06T16:14:01.675Z,29.48
2023-03-06T16:19:29.305Z,37.33
2023-03-06T16:24:57.328Z,32.08
2023-03-06T16:30:31.311Z,37.67
2023-03-06T16:35:59.408Z,39.78
2023-03-06T16:41:27.844Z,34.55
2023-03-06T16:46:56.104Z,39.60
2023-03-06T16:52:24.524Z,37.30
2023-03-06T16:57:56.738Z,48.80
2023-03-06T17:03:26.790Z,44.13
2023-03-06T17:09:01.222Z,39.38
2023-03-06T17:14:35.004Z,44.65
2023-03-06T17:20:05.946Z,51.33
2023-03-06T17:25:35.273Z,59.53
2023-03-06T17:31:14.227Z,51.50
2023-03-06T17:36:48.581Z,44.35
2023-03-06T17:42:18.166Z,55.10
2023-03-06T17:47:48.967Z,42.97
2023-03-06T17:53:21.588Z,40.20
2023-03-06T17:58:50.696Z,43.47
2023-03-06T18:04:19.621Z,55.88
2023-03-06T18:09:51.083Z,55.38
2023-03-06T18:15:19.975Z,52.50
2023-03-06T18:20:47.706Z,68.47
2023-03-06T18:26:24.564Z,59.08
2023-03-06T18:31:54.179Z,79.78
2023-03-06T18:37:27.040Z,61.67
2023-03-06T18:42:57.105Z,87.68
2023-03-06T18:48:26.195Z,81.22
2023-03-06T18:53:53.714Z,67.57
2023-03-06T18:59:21.529Z,60.08
2023-03-06T19:04:48.705Z,60.92
2023-03-06T19:10:16.904Z,53.25
2023-03-06T19:15:46.646Z,62.78
2023-03-06T19:21:16.323Z,65.90
2023-03-06T19:26:43.755Z,68.60
2023-03-06T19:32:11.971Z,67.18
2023-03-06T19:37:39.827Z,54.60
2023-03-06T19:43:08.173Z,60.70
2023-03-06T19:48:35.830Z,58.13
2023-03-06T19:54:03.964Z,53.42
2023-03-06T19:59:31.777Z,52.80
2023-03-06T20:04:59.609Z,54.33
2023-03-06T20:10:27.651Z,53.95
2023-03-06T20:15:54.548Z,53.28
2023-03-06T20:21:25.136Z,59.67
2023-03-06T20:26:58.593Z,54.60
2023-03-06T20:32:25.921Z,96.97
2023-03-06T20:37:54.024Z,79.53
2023-03-06T20:43:22.090Z,80.60
2023-03-06T20:48:52.642Z,68.32
2023-03-06T20:54:21.566Z,71.72
2023-03-06T20:59:49.146Z,76.80
2023-03-06T21:05:17.187Z,68.57
2023-03-06T21:10:46.919Z,56.95
2023-03-06T21:16:19.450Z,66.95
2023-03-06T21:21:46.850Z,70.55
2023-03-06T21:27:14.051Z,62.90
2023-03-06T21:32:42.350Z,64.20
2023-03-06T21:38:10.538Z,67.18
2023-03-06T21:43:38.568Z,65.63
2023-03-06T21:49:06.258Z,67.22
2023-03-06T21:54:34.034Z,65.38
2023-03-06T22:00:01.111Z,64.30
2023-03-06T22:05:29.923Z,71.32
2023-03-06T22:10:57.166Z,64.75
2023-03-06T22:16:24.506Z,61.58
2023-03-06T22:21:52.443Z,59.33
2023-03-06T22:27:20.220Z,54.95
2023-03-06T22:32:50.275Z,63.67
2023-03-06T22:38:19.354Z,63.08
2023-03-06T22:43:47.478Z,75.43
2023-03-06T22:49:17.093Z,75.15
2023-03-06T22:54:44.292Z,62.40
2023-03-06T23:00:12.422Z,66.50
2023-03-06T23:05:43.326Z,63.28
2023-03-06T23:11:14.781Z,60.80
2023-03-06T23:17:00.583Z,62.80
2023-03-06T23:22:46.809Z,65.97
2023-03-06T23:28:32.840Z,71.05
2023-03-06T23:34:02.938Z,76.75
2023-03-06T23:39:30.658Z,81.53
2023-03-06T23:44:58.095Z,77.65
2023-03-06T23:50:26.556Z,80.80
2023-03-06T23:55:54.620Z,79.15
